EGPB

Sumburgh Airport

Airport
ICAO code
EGPB
IATA Code
LSI
Summary
ICAO Region
EUR
ICAO Territory
Location

Sumburgh, Shetland, Scotland

Serving
Shetland
Elevation
20 ft
Coordinates
59° 52' 39" N , 1° 17' 31" W
KCC
Cfb
Metar
Observation
EGPB 111720Z 22011KT 6000 RA BKN005 BKN009 13/13 Q1021
Station
Sumburgh Cape
Date/Time
2022-08-11 17:20:00
Wind direction
220°
Wind speed
11 kts
Lowest cloud amount
broken clouds
Temperature
13°C
Dew point
13°C
Humidity
100%
QNH
1021 hPa
Weather condition
n/a

Sumburgh Airport is the main airport serving the Shetland Islands in Scotland. It is located on the southern tip of the mainland, 17 nm south of Lerwick.

Climatology

Temperate Marine climate/Oceanic climate (Köppen climate classification Cfb). Moderately cool summer and comparatively warm winter with a temperature range of only 14°C. Prevailing south-westerly winds from the Atlantic Ocean.

Runways

Designator Length Width Surface Rops
6/24 550 45 ASP Yes/Yes
9/27 1180 46 ASP Yes/Yes
15/33 1426 46 ASP Yes/Yes

SKYbrary Partners:

Safety knowledge contributed by: